Radar is unstable, so pay attention to the date and time in the image

Latest  Newer  Older  Last 2 hours animation  Current image  Latest image  Summary per 24h (testing)  Summary per 7d (testing) 
Cloud coverage sat images  Infrared sat images 
Real-time lightning map Aurora Forecast

All time is UTC (add 2 hours in wintertime, 3 hours in DST for Latvia local time)

2021/09/21 05:20 EVRA 210520Z 02007KT CAVOK 06/04 Q1019 NOSIG
2021/09/21 05:20 EVLA 210520Z AUTO VRB02KT 9999 OVC034/// 05/04 Q1021
2021/09/21 05:20 EVVA 210520Z AUTO 03005KT 9999 SCT024 07/06 Q1022
2021/09/21 05:20 EYKA 210520Z 34007KT 310V020 9999 OVC011 06/03 Q1018

2021/09/21 05:20 EYSA 210520Z 34009KT 9999 BKN007 BKN039 05/04 Q1020 TEMPO SCT007 BKN035
2021/09/21 05:20 EYVI 210520Z 34010KT 9999 OVC004 05/04 Q1016 NOSIG
2021/09/21 05:20 EEKA 210520Z 01006KT 9999 BKN015 08/06 Q1022
2021/09/21 05:20 EEKE 210520Z 34005KT 9999 BKN035 05/04 Q1022

2021/09/21 05:20 EETN 210520Z 04003KT CAVOK 07/03 Q1021 NOSIG
2021/09/21 05:20 EETU 210520Z 01004KT 340V050 9999 SCT013 OVC017 05/03 Q1019
   RIGA AIRPORT     EVRA               56 55N  023 58E   10   X     T          6 LV
   LIEPAJA INTL     EVLA        26406  56 31N  021 06E    4   X                8 LV
   VENTPILS         EVVA               57 21N  021 33E    6   X                8 LV
   KAUNAS           EYKA               54 54N  023 55E   77   X     T          6 LT
   PALANGA INTL     EYPA               55 55N  021 03E   10   X                6 LT
   SIAULIAI INTL    EYSA               55 54N  023 24E  135   X     T          6 LT
   VILNIUS INTL     EYVI        26730  54 38N  025 17E  197   X     T          6 LT
   KARDLA           EEKA        26116  58 59N  022 50E    4   X                8 EE
   KURESSAARE       EEKE               58 14N  022 31E    4   X                8 EE
   PARNU            EEPU               58 25N  024 28E   14   X                8 EE
   TALLINN          EETN        26038  59 24N  024 49E   40   X     T          8 EE
   TARTU            EETU               58 19N  026 41E   67   X                8 EE

rain/snow radar image from www.meteo.lv and METAR data from weather.noaa.gov